KDGW/DGW METAR and TAF weather

Enter ICAO airport designator
Station Type Date Time Source
KDGW METAR 2020/07/12 06:53 UTC NOAA

KDGW 120653Z AUTO 12011KT 10SM CLR 20/07 A3012 RMK AO2 SLP129 T02000067 403500100


Station Type Date Time Source
KDGW Decoded METAR 2020/07/12 06:53 UTC NOAA

DOUGLAS CONVERSE COUNTY, WY, United States (KDGW) 42-48N 105-23W 1499M
Jul 12, 2020 - 02:53 AM EDT / 2020.07.12 0653 UTC
Wind: from the ESE (120 degrees) at 13 MPH (11 KT):0
Visibility: 10 mile(s):0
Sky conditions: clear
Temperature: 68.0 F (20.0 C)
Dew Point: 44.1 F (6.7 C)
Relative Humidity: 41%
Pressure (altimeter): 30.12 in. Hg (1019 hPa)
ob: KDGW 120653Z AUTO 12011KT 10SM CLR 20/07 A3012 RMK AO2 SLP129 T02000067 403500100
cycle: 7

Station Type Date Time Source
KDGW TAF UTC NOAA

Error!

Example: see airport list